Time;durP1;ratioP1;P1;durP2;ratioP2;P2;SDS_P1;SDS_P2;PMS_P1;PMS_P2;Temp;Humidity;BMP_temperature;BMP_pressure;BME280_temperature;BME280_humidity;BME280_pressure;Samples;Min_cycle;Max_cycle;Signal;HPM_P1;HPM_P2
2022/12/30 00:01:24;;;;;;;4.27;1.17;;;;;;;;;;4960163;28;20427;-82
2022/12/30 00:03:51;;;;;;;7.03;0.90;;;;;;;;;;4960046;28;20484;-82
2022/12/30 00:06:18;;;;;;;3.10;1.50;;;;;;;;;;4959877;28;20471;-82
2022/12/30 00:08:45;;;;;;;5.13;1.37;;;;;;;;;;4959980;28;20427;-82
2022/12/30 00:11:11;;;;;;;5.23;1.50;;;;;;;;;;4966584;28;20423;-82
2022/12/30 00:33:06;;;;;;;4.00;1.03;;;;;;;;;;4996529;28;20440;-83
2022/12/30 00:35:35;;;;;;;7.60;1.23;;;;;;;;;;4995414;28;20438;-82
2022/12/30 00:38:01;;;;;;;4.67;1.00;;;;;;;;;;4976672;28;20944;-82
2022/12/30 00:40:27;;;;;;;8.07;1.70;;;;;;;;;;4958880;28;20473;-81
2022/12/30 00:43:08;;;;;;;2.43;1.20;;;;;;;;;;4955585;28;20549;-83
2022/12/30 00:45:34;;;;;;;2.83;0.90;;;;;;;;;;4957234;29;20495;-82
2022/12/30 00:48:00;;;;;;;6.20;2.10;;;;;;;;;;4956011;29;20414;-82
2022/12/30 00:56:13;;;;;;;6.83;1.53;;;;;;;;;;4956735;29;20464;-82
2022/12/30 00:58:39;;;;;;;5.70;1.90;;;;;;;;;;4957072;29;20397;-82
2022/12/30 01:01:05;;;;;;;9.40;1.90;;;;;;;;;;4956962;29;20520;-82
2022/12/30 01:03:31;;;;;;;8.20;1.50;;;;;;;;;;4967652;28;20573;-82
2022/12/30 01:05:57;;;;;;;6.77;1.23;;;;;;;;;;4976412;28;20505;-80
2022/12/30 01:08:23;;;;;;;3.77;1.20;;;;;;;;;;4959055;28;20434;-83
2022/12/30 01:10:49;;;;;;;9.13;1.20;;;;;;;;;;4958739;28;20475;-83
2022/12/30 01:13:14;;;;;;;2.93;0.70;;;;;;;;;;4959013;28;20411;-83
2022/12/30 01:15:40;;;;;;;4.77;1.10;;;;;;;;;;4958858;28;20438;-83
2022/12/30 01:18:06;;;;;;;5.60;1.33;;;;;;;;;;4958838;28;20412;-83
2022/12/30 01:20:32;;;;;;;4.83;1.27;;;;;;;;;;4958858;28;20924;-83
2022/12/30 01:22:58;;;;;;;6.97;2.20;;;;;;;;;;4958705;28;20773;-83
2022/12/30 01:25:24;;;;;;;3.40;0.80;;;;;;;;;;4958389;28;20423;-83
2022/12/30 01:27:51;;;;;;;6.50;1.70;;;;;;;;;;4958646;28;20509;-83
2022/12/30 01:30:16;;;;;;;11.80;1.43;;;;;;;;;;4958630;28;20557;-83
2022/12/30 01:32:42;;;;;;;7.80;1.80;;;;;;;;;;4958518;28;20450;-83
2022/12/30 01:35:08;;;;;;;6.30;1.30;;;;;;;;;;4958470;28;20463;-83
2022/12/30 01:37:34;;;;;;;9.63;1.90;;;;;;;;;;4958451;28;20470;-82
2022/12/30 01:40:00;;;;;;;3.23;0.57;;;;;;;;;;4958254;28;20501;-83
2022/12/30 01:42:27;;;;;;;8.73;1.60;;;;;;;;;;4958357;28;20415;-82
2022/12/30 01:45:12;;;;;;;1.83;0.80;;;;;;;;;;4958328;28;20482;-82
2022/12/30 01:47:50;;;;;;;9.00;2.20;;;;;;;;;;4961721;28;20547;-83
2022/12/30 01:50:28;;;;;;;8.03;1.67;;;;;;;;;;4958265;28;20419;-83
2022/12/30 01:52:57;;;;;;;2.43;0.97;;;;;;;;;;4957955;28;20605;-82
2022/12/30 01:55:35;;;;;;;3.13;0.77;;;;;;;;;;4956876;28;20430;-83
2022/12/30 01:58:03;;;;;;;4.03;1.43;;;;;;;;;;4958095;28;20427;-83
2022/12/30 02:00:29;;;;;;;6.80;1.37;;;;;;;;;;4958020;28;20434;-83
2022/12/30 02:02:56;;;;;;;13.87;0.90;;;;;;;;;;4975105;28;20473;-82
2022/12/30 02:05:24;;;;;;;8.37;1.23;;;;;;;;;;4975331;28;20522;-83
2022/12/30 02:07:52;;;;;;;4.23;1.20;;;;;;;;;;4975322;28;20441;-83
2022/12/30 02:10:19;;;;;;;7.73;1.80;;;;;;;;;;4974724;28;20419;-82
2022/12/30 02:12:45;;;;;;;7.90;1.10;;;;;;;;;;4975166;28;20800;-82
2022/12/30 02:15:11;;;;;;;8.33;1.97;;;;;;;;;;4934753;28;20534;-82
2022/12/30 02:17:55;;;;;;;4.93;2.00;;;;;;;;;;4957735;28;20782;-83
2022/12/30 02:20:40;;;;;;;8.50;1.87;;;;;;;;;;4975011;28;20847;-82
2022/12/30 02:23:06;;;;;;;4.90;1.17;;;;;;;;;;4974740;28;20551;-82
2022/12/30 02:25:43;;;;;;;5.90;1.27;;;;;;;;;;4974552;28;20454;-82
2022/12/30 02:28:27;;;;;;;4.27;1.80;;;;;;;;;;4974872;28;20401;-82
2022/12/30 02:31:12;;;;;;;4.03;0.73;;;;;;;;;;4974777;28;20412;-82
2022/12/30 02:33:44;;;;;;;8.63;3.23;;;;;;;;;;4974706;28;20927;-82
2022/12/30 02:36:16;;;;;;;4.43;1.20;;;;;;;;;;4974720;28;20482;-83
2022/12/30 02:38:53;;;;;;;5.27;1.93;;;;;;;;;;4974732;28;20412;-81
2022/12/30 02:44:36;;;;;;;10.07;2.60;;;;;;;;;;4974525;28;20577;-82
2022/12/30 02:47:05;;;;;;;10.63;1.83;;;;;;;;;;4957238;28;20413;-82
2022/12/30 02:49:34;;;;;;;11.27;2.10;;;;;;;;;;4957158;28;20431;-82
2022/12/30 02:52:18;;;;;;;7.57;2.30;;;;;;;;;;4957080;28;20517;-81
2022/12/30 02:54:45;;;;;;;4.00;2.13;;;;;;;;;;4954652;29;20429;-82
2022/12/30 02:57:25;;;;;;;5.73;1.13;;;;;;;;;;4937511;29;20792;-82
2022/12/30 03:05:54;;;;;;;8.40;1.43;;;;;;;;;;4941862;29;20418;-81
2022/12/30 03:08:25;;;;;;;14.70;3.30;;;;;;;;;;4944361;29;20929;-82
2022/12/30 03:11:13;;;;;;;9.40;2.03;;;;;;;;;;4941659;29;20475;-81
2022/12/30 03:13:38;;;;;;;7.50;2.10;;;;;;;;;;4925377;29;20452;-82
2022/12/30 03:16:23;;;;;;;8.10;1.90;;;;;;;;;;4928591;29;20477;-82
2022/12/30 03:18:50;;;;;;;7.70;1.30;;;;;;;;;;4943441;29;20406;-82
2022/12/30 03:21:17;;;;;;;8.33;1.70;;;;;;;;;;4943032;29;20444;-82
2022/12/30 03:29:17;;;;;;;6.63;1.70;;;;;;;;;;4943002;29;20481;-81
2022/12/30 03:31:43;;;;;;;6.93;1.70;;;;;;;;;;4927005;29;20785;-81
2022/12/30 03:34:09;;;;;;;11.63;1.30;;;;;;;;;;4927528;29;20425;-81
2022/12/30 03:36:40;;;;;;;6.30;1.83;;;;;;;;;;4925764;29;20434;-83
2022/12/30 03:39:10;;;;;;;10.20;2.67;;;;;;;;;;4926630;29;20425;-82
2022/12/30 03:41:37;;;;;;;10.73;1.63;;;;;;;;;;4927364;29;20436;-83
2022/12/30 03:44:03;;;;;;;6.97;1.73;;;;;;;;;;4943409;29;20502;-83
2022/12/30 03:46:31;;;;;;;11.20;1.73;;;;;;;;;;4926242;29;20420;-83
2022/12/30 03:48:57;;;;;;;9.07;2.20;;;;;;;;;;4927645;29;20555;-83
2022/12/30 03:51:23;;;;;;;5.80;2.30;;;;;;;;;;4926477;29;20508;-82
2022/12/30 03:53:49;;;;;;;6.33;1.70;;;;;;;;;;4954605;28;20975;-83
2022/12/30 03:56:15;;;;;;;7.67;1.53;;;;;;;;;;4980776;28;20900;-83
2022/12/30 03:58:41;;;;;;;9.40;1.87;;;;;;;;;;4982735;28;20423;-83
2022/12/30 04:01:07;;;;;;;10.70;1.60;;;;;;;;;;4965235;28;20431;-83
2022/12/30 04:03:42;;;;;;;7.17;1.57;;;;;;;;;;4980944;28;20605;-82
2022/12/30 04:06:08;;;;;;;12.60;2.33;;;;;;;;;;4981757;28;20413;-83
2022/12/30 04:08:34;;;;;;;6.53;1.60;;;;;;;;;;4965777;28;20414;-82
2022/12/30 04:11:00;;;;;;;6.80;1.23;;;;;;;;;;4981134;28;20414;-82
2022/12/30 04:13:26;;;;;;;5.80;1.43;;;;;;;;;;4974370;28;20410;-82
2022/12/30 04:15:58;;;;;;;6.00;1.30;;;;;;;;;;4955418;28;20543;-82
2022/12/30 04:18:24;;;;;;;4.80;1.73;;;;;;;;;;4956174;28;20502;-82
2022/12/30 04:20:53;;;;;;;6.83;1.37;;;;;;;;;;4959814;28;20874;-82
2022/12/30 04:23:19;;;;;;;6.83;0.80;;;;;;;;;;4959109;28;20885;-81
2022/12/30 04:25:45;;;;;;;8.43;1.53;;;;;;;;;;4958690;28;20529;-81
2022/12/30 04:28:11;;;;;;;7.77;2.43;;;;;;;;;;4976148;28;20522;-82
2022/12/30 04:30:37;;;;;;;5.23;1.53;;;;;;;;;;4959262;28;20420;-82
2022/12/30 04:33:03;;;;;;;4.33;1.00;;;;;;;;;;4976071;28;20399;-82
2022/12/30 04:35:29;;;;;;;8.23;2.30;;;;;;;;;;4959394;28;20491;-82
2022/12/30 04:37:55;;;;;;;8.17;2.20;;;;;;;;;;4959062;28;20411;-82
2022/12/30 04:40:21;;;;;;;4.93;1.10;;;;;;;;;;4958464;28;20427;-82
2022/12/30 04:42:47;;;;;;;11.97;1.50;;;;;;;;;;4976463;28;20800;-81
2022/12/30 04:45:13;;;;;;;5.83;1.80;;;;;;;;;;4958639;28;21041;-81
2022/12/30 04:47:39;;;;;;;8.83;1.60;;;;;;;;;;4976009;28;20417;-82
2022/12/30 04:50:05;;;;;;;7.50;2.10;;;;;;;;;;4975878;28;20432;-83
2022/12/30 04:52:31;;;;;;;5.93;1.50;;;;;;;;;;4975575;28;20462;-82
2022/12/30 04:54:57;;;;;;;3.30;1.23;;;;;;;;;;4975444;28;20417;-84
2022/12/30 04:57:23;;;;;;;3.70;1.67;;;;;;;;;;4975899;28;20434;-84
2022/12/30 04:59:48;;;;;;;11.13;2.80;;;;;;;;;;4975650;28;20454;-83
2022/12/30 05:02:14;;;;;;;7.30;2.10;;;;;;;;;;4958475;28;20979;-83
2022/12/30 05:04:40;;;;;;;8.33;1.73;;;;;;;;;;4958612;28;20483;-82
2022/12/30 05:07:06;;;;;;;5.87;0.80;;;;;;;;;;4976277;28;20411;-82
2022/12/30 05:09:33;;;;;;;6.90;1.70;;;;;;;;;;4957997;28;20439;-82
2022/12/30 05:11:59;;;;;;;5.30;1.30;;;;;;;;;;4975478;28;20459;-83
2022/12/30 05:14:25;;;;;;;9.60;1.57;;;;;;;;;;4958216;28;20431;-83
2022/12/30 05:16:51;;;;;;;5.20;1.43;;;;;;;;;;4958168;28;20451;-83
2022/12/30 05:19:16;;;;;;;10.33;1.37;;;;;;;;;;4958369;28;20422;-83
2022/12/30 05:21:45;;;;;;;3.77;1.13;;;;;;;;;;4958829;28;20782;-82
2022/12/30 05:26:56;;;;;;;3.63;0.90;;;;;;;;;;4975648;28;20433;-82
2022/12/30 05:29:22;;;;;;;6.50;1.23;;;;;;;;;;4957841;28;20521;-82
2022/12/30 05:31:48;;;;;;;6.37;1.13;;;;;;;;;;4957912;28;20424;-82
2022/12/30 05:34:14;;;;;;;8.37;2.67;;;;;;;;;;4958144;28;20426;-82
2022/12/30 05:36:39;;;;;;;6.80;1.20;;;;;;;;;;4958662;28;20789;-81
2022/12/30 05:39:06;;;;;;;6.80;3.80;;;;;;;;;;4957719;28;20433;-81
2022/12/30 05:41:32;;;;;;;6.67;1.30;;;;;;;;;;4957163;28;20994;-81
2022/12/30 05:43:58;;;;;;;5.33;1.83;;;;;;;;;;4957487;28;20544;-82
2022/12/30 05:46:24;;;;;;;11.37;1.90;;;;;;;;;;4957471;28;20454;-81
2022/12/30 05:48:50;;;;;;;3.47;1.13;;;;;;;;;;4957622;28;20427;-82
2022/12/30 05:51:19;;;;;;;11.63;2.07;;;;;;;;;;4958277;28;20800;-83
2022/12/30 05:53:45;;;;;;;10.73;2.43;;;;;;;;;;4974282;28;20505;-81
2022/12/30 05:56:11;;;;;;;9.33;1.00;;;;;;;;;;4956654;28;20462;-82
2022/12/30 05:58:38;;;;;;;4.63;1.13;;;;;;;;;;4957249;28;20415;-82
2022/12/30 06:01:04;;;;;;;4.80;1.83;;;;;;;;;;4957198;28;20429;-82
2022/12/30 06:03:31;;;;;;;9.40;1.50;;;;;;;;;;4957204;28;20965;-81
2022/12/30 06:06:00;;;;;;;8.57;2.43;;;;;;;;;;4957789;28;20453;-83
2022/12/30 06:08:26;;;;;;;6.83;1.67;;;;;;;;;;4957348;28;20424;-81
2022/12/30 06:10:52;;;;;;;8.07;1.00;;;;;;;;;;4974120;28;20422;-82
2022/12/30 06:13:21;;;;;;;9.33;2.60;;;;;;;;;;4957276;28;20469;-82
2022/12/30 06:15:47;;;;;;;10.80;2.17;;;;;;;;;;4934003;28;21141;-84
2022/12/30 06:18:13;;;;;;;8.97;1.13;;;;;;;;;;4976303;28;20513;-83
2022/12/30 06:20:39;;;;;;;10.60;2.80;;;;;;;;;;4976895;28;20429;-83
2022/12/30 06:23:05;;;;;;;10.03;1.60;;;;;;;;;;4976443;28;20410;-83
2022/12/30 06:25:34;;;;;;;5.07;2.07;;;;;;;;;;4975722;28;20429;-83
2022/12/30 06:28:02;;;;;;;10.80;1.77;;;;;;;;;;4976330;28;20492;-81
2022/12/30 06:30:28;;;;;;;10.37;2.80;;;;;;;;;;4976012;28;20475;-83
2022/12/30 06:32:54;;;;;;;9.13;1.57;;;;;;;;;;4976067;28;20457;-83
2022/12/30 06:35:20;;;;;;;7.70;1.90;;;;;;;;;;4976620;28;20457;-83
2022/12/30 06:37:46;;;;;;;7.40;2.03;;;;;;;;;;4976236;28;20451;-84
2022/12/30 06:40:12;;;;;;;12.23;2.20;;;;;;;;;;4975508;28;20941;-82
2022/12/30 06:42:38;;;;;;;4.53;1.30;;;;;;;;;;4975351;28;20419;-82
2022/12/30 06:45:08;;;;;;;4.63;1.47;;;;;;;;;;4975759;28;20920;-82
2022/12/30 06:47:34;;;;;;;5.63;1.13;;;;;;;;;;4975859;28;20463;-83
2022/12/30 06:50:00;;;;;;;7.00;1.43;;;;;;;;;;4976169;28;20428;-82
2022/12/30 06:52:26;;;;;;;7.20;2.03;;;;;;;;;;4993551;28;20892;-82
2022/12/30 06:54:52;;;;;;;7.40;1.27;;;;;;;;;;4992633;28;20577;-82
2022/12/30 06:57:18;;;;;;;5.20;1.60;;;;;;;;;;4975558;28;20880;-82
2022/12/30 06:59:44;;;;;;;6.97;1.40;;;;;;;;;;4975551;28;20422;-82
2022/12/30 07:02:11;;;;;;;9.37;1.57;;;;;;;;;;4975519;28;20418;-82
2022/12/30 07:04:38;;;;;;;5.00;1.20;;;;;;;;;;4975820;28;20541;-82
2022/12/30 07:07:04;;;;;;;8.13;2.00;;;;;;;;;;4975908;28;20424;-82
2022/12/30 07:09:30;;;;;;;8.53;2.67;;;;;;;;;;4975008;28;20781;-82
2022/12/30 07:11:56;;;;;;;7.00;2.40;;;;;;;;;;4975434;28;20451;-82
2022/12/30 07:14:22;;;;;;;4.13;1.37;;;;;;;;;;4975515;28;20524;-82
2022/12/30 07:16:50;;;;;;;5.43;2.30;;;;;;;;;;4992897;28;20439;-82
2022/12/30 07:19:16;;;;;;;3.70;1.17;;;;;;;;;;4975430;28;20437;-83
2022/12/30 07:21:42;;;;;;;7.67;2.40;;;;;;;;;;4993561;28;20419;-82
2022/12/30 07:24:08;;;;;;;9.60;2.20;;;;;;;;;;4992224;28;20557;-82
2022/12/30 07:26:34;;;;;;;5.33;1.13;;;;;;;;;;4992757;28;20931;-82
2022/12/30 07:29:00;;;;;;;11.83;2.30;;;;;;;;;;4992721;28;20455;-82
2022/12/30 07:31:26;;;;;;;6.53;1.43;;;;;;;;;;4992713;28;20453;-82
2022/12/30 07:33:52;;;;;;;5.93;1.40;;;;;;;;;;4992872;28;20452;-82
2022/12/30 07:36:18;;;;;;;6.43;1.27;;;;;;;;;;4934514;28;20443;-82
2022/12/30 07:38:44;;;;;;;9.40;1.33;;;;;;;;;;4975604;28;20782;-82
2022/12/30 07:41:11;;;;;;;18.10;2.67;;;;;;;;;;4975412;28;20427;-82
2022/12/30 07:43:37;;;;;;;9.57;1.80;;;;;;;;;;4992465;28;20467;-82
2022/12/30 07:46:07;;;;;;;4.57;1.80;;;;;;;;;;4992648;28;20443;-82
2022/12/30 07:48:33;;;;;;;4.43;1.20;;;;;;;;;;4992476;28;20420;-82
2022/12/30 07:50:59;;;;;;;2.23;0.60;;;;;;;;;;4993212;28;20408;-82
2022/12/30 07:53:25;;;;;;;5.57;1.47;;;;;;;;;;4975534;28;20667;-82
2022/12/30 07:55:53;;;;;;;16.20;2.40;;;;;;;;;;4961720;28;20789;-82
2022/12/30 07:58:19;;;;;;;5.30;1.00;;;;;;;;;;4957991;28;20916;-82
2022/12/30 08:00:45;;;;;;;8.10;1.87;;;;;;;;;;4976313;28;20433;-82
2022/12/30 08:03:11;;;;;;;5.27;1.47;;;;;;;;;;4958718;28;20503;-82
2022/12/30 08:05:37;;;;;;;4.03;1.30;;;;;;;;;;4976802;28;20829;-82
2022/12/30 08:08:03;;;;;;;6.70;1.53;;;;;;;;;;4959642;28;20424;-81
2022/12/30 08:10:29;;;;;;;4.20;1.20;;;;;;;;;;4976302;28;20439;-83
2022/12/30 08:12:55;;;;;;;4.50;1.50;;;;;;;;;;4959533;28;20516;-83
2022/12/30 08:15:21;;;;;;;8.10;2.33;;;;;;;;;;4959222;28;20430;-83
2022/12/30 08:17:47;;;;;;;6.37;1.50;;;;;;;;;;4959199;28;20944;-83
2022/12/30 08:20:13;;;;;;;5.03;1.30;;;;;;;;;;4959757;28;20792;-83
2022/12/30 08:22:39;;;;;;;9.97;1.07;;;;;;;;;;4959962;28;20852;-84
2022/12/30 08:25:05;;;;;;;10.33;2.70;;;;;;;;;;4976457;28;20475;-82
2022/12/30 08:27:34;;;;;;;11.17;2.40;;;;;;;;;;4959120;28;20432;-84
2022/12/30 08:30:06;;;;;;;3.90;1.23;;;;;;;;;;4976536;28;21101;-84
2022/12/30 08:32:32;;;;;;;5.20;2.00;;;;;;;;;;4976473;28;20516;-81
2022/12/30 08:35:01;;;;;;;6.63;2.10;;;;;;;;;;4959033;28;20508;-83
2022/12/30 08:37:27;;;;;;;3.10;1.50;;;;;;;;;;4959403;28;20467;-84
2022/12/30 08:39:53;;;;;;;4.67;0.83;;;;;;;;;;4958519;28;20823;-82
2022/12/30 08:42:19;;;;;;;4.50;1.10;;;;;;;;;;4976298;28;20434;-83
2022/12/30 08:44:45;;;;;;;9.43;1.30;;;;;;;;;;4957186;28;20572;-83
2022/12/30 08:47:14;;;;;;;6.27;1.10;;;;;;;;;;4967778;28;21030;-84
2022/12/30 08:49:40;;;;;;;8.27;1.50;;;;;;;;;;4955596;28;20432;-84
2022/12/30 08:52:06;;;;;;;4.20;1.07;;;;;;;;;;4955815;28;20448;-84
2022/12/30 08:54:32;;;;;;;3.73;1.03;;;;;;;;;;4927531;28;21322;-82
2022/12/30 08:56:58;;;;;;;5.20;1.37;;;;;;;;;;4955526;28;20436;-83
2022/12/30 08:59:24;;;;;;;7.60;1.80;;;;;;;;;;4956766;28;20545;-83
2022/12/30 09:01:50;;;;;;;7.50;1.70;;;;;;;;;;4955816;28;20846;-84
2022/12/30 09:04:17;;;;;;;9.83;2.67;;;;;;;;;;4971360;28;20867;-84
2022/12/30 09:06:43;;;;;;;6.67;2.33;;;;;;;;;;4953565;28;20440;-84
2022/12/30 09:09:10;;;;;;;5.43;1.00;;;;;;;;;;4972100;28;20486;-83
2022/12/30 09:11:37;;;;;;;6.20;1.20;;;;;;;;;;4970808;28;20557;-83
2022/12/30 09:14:05;;;;;;;9.70;1.30;;;;;;;;;;4953853;28;20434;-82
2022/12/30 09:16:31;;;;;;;8.23;1.63;;;;;;;;;;4971536;28;20515;-82
2022/12/30 09:18:57;;;;;;;5.87;1.30;;;;;;;;;;4954810;28;20535;-83
2022/12/30 09:21:31;;;;;;;5.60;1.47;;;;;;;;;;4954189;28;20496;-82
2022/12/30 09:23:57;;;;;;;6.90;2.00;;;;;;;;;;4955388;28;20577;-83
2022/12/30 09:26:24;;;;;;;4.13;0.73;;;;;;;;;;4974805;28;20934;-82
2022/12/30 09:28:50;;;;;;;3.83;1.00;;;;;;;;;;4974359;28;20927;-83
2022/12/30 09:31:17;;;;;;;8.10;1.30;;;;;;;;;;4983156;28;20906;-83
2022/12/30 09:33:43;;;;;;;9.83;1.50;;;;;;;;;;4976644;28;20844;-83
2022/12/30 09:36:09;;;;;;;5.60;1.40;;;;;;;;;;4977747;28;20461;-83
2022/12/30 09:38:35;;;;;;;6.90;0.50;;;;;;;;;;4976962;28;20913;-83
2022/12/30 09:41:03;;;;;;;4.23;1.50;;;;;;;;;;4976563;28;20426;-83
2022/12/30 09:43:48;;;;;;;6.73;1.20;;;;;;;;;;4976736;28;20510;-85
2022/12/30 09:46:23;;;;;;;4.60;1.00;;;;;;;;;;4966961;28;20423;-85
2022/12/30 09:48:53;;;;;;;5.77;1.40;;;;;;;;;;4965771;28;20443;-84
2022/12/30 09:51:22;;;;;;;4.73;1.00;;;;;;;;;;4965663;28;20425;-83
2022/12/30 09:53:57;;;;;;;5.13;0.70;;;;;;;;;;4966943;28;20459;-84
2022/12/30 09:56:29;;;;;;;4.57;1.60;;;;;;;;;;4963072;28;20923;-83
2022/12/30 09:58:56;;;;;;;3.23;0.80;;;;;;;;;;4974621;28;20417;-82
2022/12/30 10:01:30;;;;;;;5.47;0.73;;;;;;;;;;4925003;28;20845;-83
2022/12/30 10:03:58;;;;;;;5.00;0.43;;;;;;;;;;4979623;28;20836;-83
2022/12/30 10:06:27;;;;;;;7.50;0.93;;;;;;;;;;4965943;28;20426;-83
2022/12/30 10:09:01;;;;;;;7.40;1.10;;;;;;;;;;4980947;28;20829;-83
2022/12/30 10:11:50;;;;;;;4.17;0.60;;;;;;;;;;4965631;28;20423;-83
2022/12/30 10:14:22;;;;;;;7.63;0.83;;;;;;;;;;4980654;28;20416;-83
2022/12/30 10:16:48;;;;;;;6.10;0.70;;;;;;;;;;4964911;28;20419;-84
2022/12/30 10:19:21;;;;;;;5.90;1.73;;;;;;;;;;4964729;28;20478;-83
2022/12/30 10:22:01;;;;;;;7.73;0.73;;;;;;;;;;4982829;28;20789;-83
2022/12/30 10:24:35;;;;;;;9.90;1.27;;;;;;;;;;4984363;28;20466;-84
2022/12/30 10:27:06;;;;;;;3.70;0.57;;;;;;;;;;4967054;28;20419;-83
2022/12/30 10:29:34;;;;;;;5.53;1.40;;;;;;;;;;4966667;28;20769;-83
2022/12/30 10:32:13;;;;;;;3.80;0.80;;;;;;;;;;4957690;28;20483;-82
2022/12/30 10:34:40;;;;;;;2.87;0.53;;;;;;;;;;4956768;28;20412;-84
2022/12/30 10:37:11;;;;;;;5.90;0.30;;;;;;;;;;4955664;28;20427;-85
2022/12/30 10:39:48;;;;;;;4.20;0.93;;;;;;;;;;4956571;28;20517;-84
2022/12/30 10:42:22;;;;;;;5.63;0.40;;;;;;;;;;4956987;28;20789;-82
2022/12/30 10:45:07;;;;;;;8.20;0.90;;;;;;;;;;4974208;28;21019;-85
2022/12/30 10:47:52;;;;;;;6.20;0.80;;;;;;;;;;4957420;28;20434;-85
2022/12/30 10:50:23;;;;;;;4.17;0.90;;;;;;;;;;4957234;28;20423;-84
2022/12/30 10:52:49;;;;;;;6.23;1.70;;;;;;;;;;4957194;28;20905;-85
2022/12/30 10:55:23;;;;;;;2.20;0.60;;;;;;;;;;4956711;28;20475;-85
2022/12/30 10:57:50;;;;;;;8.87;1.27;;;;;;;;;;4957065;28;20427;-85
2022/12/30 11:00:17;;;;;;;4.50;0.33;;;;;;;;;;4974427;28;20421;-85
2022/12/30 11:02:51;;;;;;;4.70;0.80;;;;;;;;;;4925718;28;20439;-84
2022/12/30 11:05:27;;;;;;;5.50;0.60;;;;;;;;;;4976031;28;20485;-84
2022/12/30 11:07:57;;;;;;;1.20;0.30;;;;;;;;;;4976367;28;20421;-84
2022/12/30 11:10:23;;;;;;;7.87;0.77;;;;;;;;;;4975908;28;20477;-84
2022/12/30 11:15:49;;;;;;;4.33;0.50;;;;;;;;;;4993789;28;20911;-88
2022/12/30 11:18:16;;;;;;;3.97;1.00;;;;;;;;;;4963846;28;20438;-88
2022/12/30 11:20:42;;;;;;;3.20;0.20;;;;;;;;;;4955717;28;20419;-91
2022/12/30 11:23:26;;;;;;;7.30;1.07;;;;;;;;;;4956848;28;20408;-87
2022/12/30 11:25:52;;;;;;;4.00;0.97;;;;;;;;;;4955025;28;20422;-87
2022/12/30 11:28:18;;;;;;;8.70;0.87;;;;;;;;;;4974850;28;20461;-84
2022/12/30 11:31:04;;;;;;;2.50;0.30;;;;;;;;;;4990870;28;20938;-90
2022/12/30 11:33:35;;;;;;;3.30;0.20;;;;;;;;;;4974344;28;20561;-89
2022/12/30 11:36:12;;;;;;;7.17;0.70;;;;;;;;;;4966645;28;20474;-90
2022/12/30 11:38:39;;;;;;;5.70;0.93;;;;;;;;;;4974340;28;20950;-89
2022/12/30 11:41:17;;;;;;;4.13;0.73;;;;;;;;;;4993326;28;20412;-87
2022/12/30 11:43:44;;;;;;;1.13;0.30;;;;;;;;;;4969809;28;20463;-88
2022/12/30 11:46:14;;;;;;;4.90;2.00;;;;;;;;;;4968958;28;20920;-89
2022/12/30 11:49:00;;;;;;;2.87;0.53;;;;;;;;;;4968451;28;20762;-90
2022/12/30 11:51:27;;;;;;;10.17;1.27;;;;;;;;;;4981255;28;20584;-90
2022/12/30 11:54:02;;;;;;;2.00;0.37;;;;;;;;;;4963029;28;20469;-94
2022/12/30 11:56:28;;;;;;;5.43;0.43;;;;;;;;;;4979570;28;20470;-88
2022/12/30 11:58:54;;;;;;;6.30;0.70;;;;;;;;;;4962486;28;20425;-89
2022/12/30 12:01:20;;;;;;;2.83;0.40;;;;;;;;;;4962113;28;20424;-89
2022/12/30 12:03:48;;;;;;;1.80;0.53;;;;;;;;;;4961759;28;21005;-89
2022/12/30 12:06:14;;;;;;;6.30;0.50;;;;;;;;;;4944291;28;20540;-88
2022/12/30 12:08:59;;;;;;;2.90;0.70;;;;;;;;;;4999540;28;20438;-89
2022/12/30 12:11:27;;;;;;;3.50;0.50;;;;;;;;;;4989792;28;20421;-90
2022/12/30 12:13:58;;;;;;;3.20;0.60;;;;;;;;;;4981745;28;20417;-89
2022/12/30 12:16:37;;;;;;;3.30;0.53;;;;;;;;;;4980559;28;20453;-90
2022/12/30 12:19:24;;;;;;;9.33;0.80;;;;;;;;;;4997373;28;20445;-90
2022/12/30 12:21:52;;;;;;;7.00;1.77;;;;;;;;;;4980164;28;20766;-88
2022/12/30 12:24:26;;;;;;;7.30;1.27;;;;;;;;;;4979717;28;20820;-89
2022/12/30 12:26:55;;;;;;;5.23;0.63;;;;;;;;;;4980139;28;20414;-89
2022/12/30 12:29:22;;;;;;;3.20;1.00;;;;;;;;;;4980227;28;20418;-88
2022/12/30 12:31:58;;;;;;;4.93;1.17;;;;;;;;;;4980111;28;20407;-89
2022/12/30 12:34:27;;;;;;;0.80;0.30;;;;;;;;;;4980090;28;20746;-89
2022/12/30 12:37:12;;;;;;;2.43;0.30;;;;;;;;;;4980042;28;20403;-89
2022/12/30 12:39:58;;;;;;;5.73;0.43;;;;;;;;;;4978835;28;20487;-89
2022/12/30 12:42:51;;;;;;;1.90;0.30;;;;;;;;;;4979809;28;20425;-89
2022/12/30 12:45:35;;;;;;;2.73;0.53;;;;;;;;;;4979991;28;20532;-89
2022/12/30 12:48:01;;;;;;;4.20;1.03;;;;;;;;;;4979855;28;20422;-89
2022/12/30 12:50:41;;;;;;;2.73;0.20;;;;;;;;;;4979647;28;20427;-89
2022/12/30 12:53:30;;;;;;;5.63;0.30;;;;;;;;;;4979675;28;20443;-89
2022/12/30 12:56:14;;;;;;;1.87;0.23;;;;;;;;;;4979732;28;20487;-88
2022/12/30 12:58:59;;;;;;;6.50;0.97;;;;;;;;;;4979740;28;20443;-87
2022/12/30 13:01:30;;;;;;;5.00;0.60;;;;;;;;;;4979428;28;20443;-87
2022/12/30 13:04:04;;;;;;;1.87;0.40;;;;;;;;;;4979263;28;20508;-88
2022/12/30 13:06:48;;;;;;;2.87;0.20;;;;;;;;;;4979216;28;20435;-88
2022/12/30 13:09:14;;;;;;;1.67;0.47;;;;;;;;;;4979076;28;20437;-88
2022/12/30 13:11:50;;;;;;;1.90;0.20;;;;;;;;;;4979532;28;20468;-88
2022/12/30 13:14:28;;;;;;;3.20;0.80;;;;;;;;;;4996467;28;20406;-86
2022/12/30 13:16:55;;;;;;;4.63;1.77;;;;;;;;;;4979049;28;20423;-88
2022/12/30 13:19:23;;;;;;;1.90;0.40;;;;;;;;;;4978915;28;20418;-88
2022/12/30 13:21:51;;;;;;;1.27;0.27;;;;;;;;;;4978920;28;20415;-88
2022/12/30 13:24:24;;;;;;;1.33;0.43;;;;;;;;;;4978453;28;20480;-87
2022/12/30 13:26:50;;;;;;;2.23;0.57;;;;;;;;;;4978992;28;20453;-88
2022/12/30 13:29:16;;;;;;;2.93;0.47;;;;;;;;;;4979052;28;20465;-87
2022/12/30 13:31:46;;;;;;;4.33;0.60;;;;;;;;;;4986704;28;20408;-87
2022/12/30 13:34:31;;;;;;;4.43;0.57;;;;;;;;;;4999652;28;20417;-87
2022/12/30 13:37:07;;;;;;;0.60;0.23;;;;;;;;;;4989977;28;20499;-88
2022/12/30 13:39:52;;;;;;;6.50;0.97;;;;;;;;;;4942990;28;20432;-88
2022/12/30 13:42:28;;;;;;;2.77;0.87;;;;;;;;;;4965250;28;20412;-87
2022/12/30 13:44:55;;;;;;;0.60;0.20;;;;;;;;;;4985521;28;20516;-88
2022/12/30 13:47:30;;;;;;;2.60;0.30;;;;;;;;;;4968392;28;20478;-87
2022/12/30 13:49:56;;;;;;;3.23;0.80;;;;;;;;;;4971943;28;20433;-89
2022/12/30 13:52:24;;;;;;;3.33;0.40;;;;;;;;;;4970560;28;20422;-89
2022/12/30 13:54:51;;;;;;;2.57;0.73;;;;;;;;;;4966613;28;20538;-86
2022/12/30 13:57:28;;;;;;;4.33;0.60;;;;;;;;;;4966032;28;20428;-89
2022/12/30 14:00:08;;;;;;;2.30;0.30;;;;;;;;;;4969576;28;20412;-88
2022/12/30 14:02:48;;;;;;;8.87;2.50;;;;;;;;;;4983344;28;20482;-89
2022/12/30 14:05:32;;;;;;;4.23;0.70;;;;;;;;;;4959846;28;20482;-89
2022/12/30 14:07:58;;;;;;;4.60;0.70;;;;;;;;;;4984262;28;20421;-89
2022/12/30 14:10:27;;;;;;;5.67;0.80;;;;;;;;;;4985885;28;20931;-89
2022/12/30 14:13:12;;;;;;;5.83;1.80;;;;;;;;;;4968875;28;20415;-89
2022/12/30 14:15:38;;;;;;;5.90;0.90;;;;;;;;;;4961646;28;20455;-88
2022/12/30 14:18:24;;;;;;;4.63;0.60;;;;;;;;;;4975181;28;20502;-85
2022/12/30 14:21:13;;;;;;;0.97;0.47;;;;;;;;;;4966776;28;20425;-88
2022/12/30 14:23:48;;;;;;;7.30;1.33;;;;;;;;;;4966820;28;20459;-87
2022/12/30 14:26:20;;;;;;;7.07;0.50;;;;;;;;;;4958489;28;20431;-87
2022/12/30 14:28:48;;;;;;;18.90;6.30;;;;;;;;;;4958713;28;20434;-89
2022/12/30 14:31:40;;;;;;;10.50;4.93;;;;;;;;;;4957860;28;20450;-89
2022/12/30 14:34:18;;;;;;;10.57;2.10;;;;;;;;;;4971308;28;20441;-86
2022/12/30 14:36:55;;;;;;;1.90;0.57;;;;;;;;;;4957813;28;20434;-89
2022/12/30 14:39:21;;;;;;;11.40;6.60;;;;;;;;;;4957504;28;20508;-90
2022/12/30 14:41:48;;;;;;;7.53;3.20;;;;;;;;;;4957922;28;20942;-88
2022/12/30 14:44:14;;;;;;;12.37;4.00;;;;;;;;;;4957788;28;20475;-90
2022/12/30 14:46:43;;;;;;;3.60;0.73;;;;;;;;;;4957500;28;20420;-88
2022/12/30 14:49:16;;;;;;;5.83;2.93;;;;;;;;;;4957512;28;20433;-87
2022/12/30 14:51:44;;;;;;;4.23;0.77;;;;;;;;;;4957701;28;20425;-90
2022/12/30 14:54:15;;;;;;;5.03;1.20;;;;;;;;;;4974323;28;20954;-89
2022/12/30 14:56:51;;;;;;;2.60;0.70;;;;;;;;;;4957852;28;20418;-87
2022/12/30 14:59:21;;;;;;;4.90;1.03;;;;;;;;;;4957959;28;20776;-86
2022/12/30 15:02:02;;;;;;;3.00;0.40;;;;;;;;;;4974864;28;20908;-89
2022/12/30 15:04:28;;;;;;;7.90;0.60;;;;;;;;;;4961985;28;20487;-89
2022/12/30 15:06:54;;;;;;;4.83;0.50;;;;;;;;;;4974594;28;20493;-89
2022/12/30 15:09:23;;;;;;;3.30;0.83;;;;;;;;;;4974218;28;20420;-90
2022/12/30 15:11:52;;;;;;;3.13;0.57;;;;;;;;;;4957141;28;20443;-88
2022/12/30 15:14:18;;;;;;;2.30;0.47;;;;;;;;;;4957018;28;20469;-89
2022/12/30 15:16:44;;;;;;;1.50;0.70;;;;;;;;;;4957089;28;20421;-89
2022/12/30 15:19:30;;;;;;;7.60;1.67;;;;;;;;;;4957218;28;20470;-90
2022/12/30 15:21:57;;;;;;;3.13;0.50;;;;;;;;;;4973048;28;20927;-89
2022/12/30 15:24:25;;;;;;;7.63;1.93;;;;;;;;;;4956582;28;20915;-88
2022/12/30 15:26:52;;;;;;;3.90;1.07;;;;;;;;;;4974509;28;20921;-88
2022/12/30 15:29:29;;;;;;;1.60;0.43;;;;;;;;;;4957286;28;20431;-89
2022/12/30 15:31:56;;;;;;;3.57;0.67;;;;;;;;;;4956969;28;20419;-86
2022/12/30 15:34:25;;;;;;;5.43;1.03;;;;;;;;;;4974390;28;20474;-87
2022/12/30 15:36:51;;;;;;;3.50;0.90;;;;;;;;;;4974145;28;20414;-89
2022/12/30 15:39:19;;;;;;;2.53;0.43;;;;;;;;;;4963113;28;20418;-89
2022/12/30 15:41:45;;;;;;;3.40;0.77;;;;;;;;;;4993878;28;20471;-89